Time;durP1;ratioP1;P1;durP2;ratioP2;P2;SDS_P1;SDS_P2;PMS_P1;PMS_P2;Temp;Humidity;BMP_temperature;BMP_pressure;BME280_temperature;BME280_humidity;BME280_pressure;Samples;Min_cycle;Max_cycle;Signal;HPM_P1;HPM_P2
2021/10/22 00:02:16;;;;;;;1.65;0.80;;;9.70;95.30;;;;;;4906861;29;20040;-68
2021/10/22 00:04:42;;;;;;;2.08;0.73;;;9.70;95.50;;;;;;4909938;29;20256;-69
2021/10/22 00:07:08;;;;;;;0.50;0.50;;;9.60;96.30;;;;;;4916977;29;20131;-69
2021/10/22 00:09:33;;;;;;;1.67;0.70;;;9.60;96.30;;;;;;4911876;29;20032;-70
2021/10/22 00:11:59;;;;;;;2.95;0.70;;;9.60;96.40;;;;;;4907247;29;20031;-69
2021/10/22 00:14:25;;;;;;;0.85;0.85;;;9.60;96.80;;;;;;4907765;29;20131;-69
2021/10/22 00:16:50;;;;;;;0.73;0.60;;;9.60;96.90;;;;;;4912891;29;20028;-69
2021/10/22 00:19:16;;;;;;;1.58;0.70;;;9.60;96.80;;;;;;4910911;29;20600;-69
2021/10/22 00:21:42;;;;;;;0.60;0.60;;;9.70;96.60;;;;;;4918545;29;20052;-70
2021/10/22 00:24:08;;;;;;;0.80;0.60;;;9.60;96.60;;;;;;4913436;29;20074;-69
2021/10/22 00:26:34;;;;;;;1.13;0.80;;;9.60;96.80;;;;;;4911444;29;20039;-69
2021/10/22 00:29:00;;;;;;;5.97;1.38;;;9.60;97.50;;;;;;4911401;29;20031;-69
2021/10/22 00:31:26;;;;;;;1.10;1.00;;;9.50;96.60;;;;;;4910070;29;20039;-69
2021/10/22 00:33:52;;;;;;;4.53;1.40;;;9.50;96.90;;;;;;4911249;29;20055;-69
2021/10/22 00:36:18;;;;;;;2.92;1.50;;;9.50;97.50;;;;;;4905421;29;20020;-69
2021/10/22 00:38:43;;;;;;;2.08;1.20;;;9.50;97.00;;;;;;4909397;29;20043;-69
2021/10/22 00:41:10;;;;;;;2.70;1.42;;;9.50;96.90;;;;;;4925472;29;20028;-69
2021/10/22 00:43:36;;;;;;;1.40;1.30;;;9.50;96.90;;;;;;4926549;29;20049;-67
2021/10/22 00:46:01;;;;;;;3.55;1.63;;;9.60;96.30;;;;;;4914218;29;20032;-69
2021/10/22 00:48:27;;;;;;;5.78;1.52;;;9.50;96.30;;;;;;4908160;29;20036;-68
2021/10/22 00:51:00;;;;;;;1.80;1.30;;;9.50;96.40;;;;;;4922077;29;20036;-68
2021/10/22 00:53:26;;;;;;;3.85;2.05;;;9.50;96.50;;;;;;4906124;29;20032;-69
2021/10/22 00:55:53;;;;;;;2.10;1.60;;;9.40;96.50;;;;;;4906313;29;20032;-68
2021/10/22 00:58:19;;;;;;;2.05;1.30;;;9.40;96.50;;;;;;4909106;29;20063;-68
2021/10/22 01:00:45;;;;;;;1.85;1.60;;;9.50;96.50;;;;;;4909659;29;20055;-68
2021/10/22 01:03:10;;;;;;;1.75;1.60;;;9.50;96.50;;;;;;4907706;29;20028;-68
2021/10/22 01:05:36;;;;;;;2.33;1.70;;;9.50;96.40;;;;;;4902374;29;20623;-69
2021/10/22 01:08:03;;;;;;;2.30;1.60;;;9.50;96.60;;;;;;4909396;29;20492;-68
2021/10/22 01:10:29;;;;;;;2.35;1.52;;;9.40;96.40;;;;;;4904573;29;20512;-68
2021/10/22 01:12:57;;;;;;;4.85;1.70;;;9.40;96.70;;;;;;4903346;29;20056;-68
2021/10/22 01:15:23;;;;;;;1.67;1.58;;;9.40;96.80;;;;;;4903582;29;20681;-69
2021/10/22 01:17:48;;;;;;;1.92;1.50;;;9.40;96.50;;;;;;4911678;29;20032;-69
2021/10/22 01:20:21;;;;;;;1.88;1.20;;;9.40;96.90;;;;;;4910989;29;20654;-68
2021/10/22 01:22:49;;;;;;;3.28;1.38;;;9.40;97.00;;;;;;4913559;29;20028;-68
2021/10/22 01:25:18;;;;;;;3.17;1.67;;;9.40;96.80;;;;;;4916569;29;20028;-68
2021/10/22 01:27:45;;;;;;;2.13;1.40;;;9.40;96.70;;;;;;4915461;29;20038;-68
2021/10/22 01:30:13;;;;;;;3.08;1.55;;;9.40;96.70;;;;;;4903438;29;20040;-68
2021/10/22 01:32:39;;;;;;;1.40;1.30;;;9.40;96.40;;;;;;4914203;29;20055;-68
2021/10/22 01:35:07;;;;;;;3.42;1.60;;;9.40;96.70;;;;;;4911179;29;20436;-69
2021/10/22 01:37:33;;;;;;;1.50;1.40;;;9.40;96.60;;;;;;4911104;29;20293;-68
2021/10/22 01:39:59;;;;;;;1.67;1.17;;;9.40;96.60;;;;;;4916124;29;20044;-68
2021/10/22 01:42:25;;;;;;;1.00;1.00;;;9.40;96.50;;;;;;4915873;29;20478;-68
2021/10/22 01:44:51;;;;;;;1.90;1.15;;;9.40;96.50;;;;;;4911669;29;20035;-68
2021/10/22 01:47:17;;;;;;;1.20;1.10;;;9.40;96.20;;;;;;4910498;29;20610;-68
2021/10/22 01:49:43;;;;;;;0.98;0.98;;;9.30;95.80;;;;;;4912106;29;20036;-68
2021/10/22 01:52:10;;;;;;;1.10;1.00;;;9.30;95.00;;;;;;4916296;29;20036;-68
2021/10/22 01:54:36;;;;;;;1.08;1.02;;;9.30;95.40;;;;;;4907081;29;20028;-69
2021/10/22 01:57:02;;;;;;;0.60;0.60;;;9.20;95.10;;;;;;4915512;29;20775;-68
2021/10/22 01:59:28;;;;;;;2.05;0.93;;;9.20;95.00;;;;;;4910375;29;20032;-67
2021/10/22 02:01:53;;;;;;;0.75;0.70;;;9.10;94.50;;;;;;4912285;29;20391;-68
2021/10/22 02:04:19;;;;;;;0.60;0.60;;;9.00;94.90;;;;;;4915925;29;20036;-68
2021/10/22 02:06:47;;;;;;;0.50;0.50;;;9.00;94.00;;;;;;4914211;29;20114;-68
2021/10/22 02:09:13;;;;;;;0.60;0.60;;;8.90;94.60;;;;;;4909446;29;20489;-68
2021/10/22 02:11:38;;;;;;;1.02;0.68;;;8.90;94.00;;;;;;4910632;29;20037;-69
2021/10/22 02:14:04;;;;;;;0.73;0.63;;;8.80;94.30;;;;;;4909711;29;20561;-68
2021/10/22 02:16:29;;;;;;;0.60;0.60;;;8.90;94.20;;;;;;4912200;29;20084;-68
2021/10/22 02:18:55;;;;;;;0.60;0.60;;;8.80;93.90;;;;;;4906954;29;20063;-68
2021/10/22 02:21:21;;;;;;;0.73;0.73;;;8.80;94.00;;;;;;4919603;29;20032;-68
2021/10/22 02:23:47;;;;;;;0.57;0.57;;;8.80;93.80;;;;;;4914623;29;20032;-68
2021/10/22 02:26:12;;;;;;;0.60;0.60;;;8.80;94.10;;;;;;4916130;29;20252;-68
2021/10/22 02:28:38;;;;;;;1.15;0.57;;;8.70;94.30;;;;;;4911950;29;20423;-68
2021/10/22 02:31:04;;;;;;;0.68;0.68;;;8.80;94.20;;;;;;4912085;29;20083;-68
2021/10/22 02:33:29;;;;;;;0.50;0.50;;;8.80;94.10;;;;;;4916131;29;20474;-68
2021/10/22 02:35:55;;;;;;;0.50;0.50;;;8.80;94.30;;;;;;4916070;29;20474;-68
2021/10/22 02:38:21;;;;;;;0.50;0.50;;;8.80;94.30;;;;;;4912451;29;20048;-68
2021/10/22 02:40:46;;;;;;;0.63;0.55;;;8.70;94.40;;;;;;4915483;29;20032;-68
2021/10/22 02:43:12;;;;;;;0.75;0.75;;;8.70;94.70;;;;;;4913925;29;20032;-68
2021/10/22 02:45:37;;;;;;;0.55;0.55;;;8.70;94.70;;;;;;4915057;29;20036;-69
2021/10/22 02:48:03;;;;;;;2.72;0.70;;;8.70;94.50;;;;;;4912694;29;20043;-68
2021/10/22 02:50:29;;;;;;;1.00;1.00;;;8.60;94.10;;;;;;4907724;29;20103;-68
2021/10/22 02:52:55;;;;;;;2.25;0.80;;;8.60;94.80;;;;;;4924996;28;20040;-68
2021/10/22 02:55:20;;;;;;;1.00;0.80;;;8.60;93.70;;;;;;4923053;29;20088;-73
2021/10/22 02:57:46;;;;;;;0.85;0.85;;;8.70;93.60;;;;;;4925705;29;20536;-69
2021/10/22 03:00:12;;;;;;;0.80;0.80;;;8.60;94.00;;;;;;4909210;29;20024;-69
2021/10/22 03:02:45;;;;;;;0.82;0.82;;;8.60;94.30;;;;;;4907141;29;20047;-69
2021/10/22 03:05:11;;;;;;;1.17;1.00;;;8.60;94.10;;;;;;4927925;29;20039;-69
2021/10/22 03:07:38;;;;;;;0.60;0.60;;;8.50;93.50;;;;;;4906409;29;20450;-69
2021/10/22 03:10:05;;;;;;;1.35;0.82;;;8.40;94.00;;;;;;4913003;29;20043;-69
2021/10/22 03:12:31;;;;;;;0.80;0.80;;;8.30;94.00;;;;;;4912330;29;20043;-69
2021/10/22 03:14:57;;;;;;;2.90;1.10;;;8.30;94.20;;;;;;4910638;29;20049;-69
2021/10/22 03:17:22;;;;;;;1.52;1.00;;;8.40;93.40;;;;;;4915328;29;20581;-69
2021/10/22 03:19:48;;;;;;;2.95;0.95;;;8.30;92.90;;;;;;4911734;29;20067;-69
2021/10/22 03:22:14;;;;;;;1.73;0.80;;;8.30;92.90;;;;;;4913932;29;20036;-69
2021/10/22 03:24:41;;;;;;;1.40;0.80;;;8.30;92.60;;;;;;4915032;29;20052;-69
2021/10/22 03:27:10;;;;;;;1.45;1.08;;;8.30;92.90;;;;;;4911448;29;20123;-69
2021/10/22 03:29:37;;;;;;;1.27;1.08;;;8.20;93.10;;;;;;4909151;29;20036;-69
2021/10/22 03:32:03;;;;;;;3.88;0.95;;;8.30;93.50;;;;;;4909721;29;20040;-69
2021/10/22 03:34:29;;;;;;;1.15;1.05;;;8.30;93.30;;;;;;4914766;29;20095;-69
2021/10/22 03:36:55;;;;;;;1.20;0.90;;;8.30;93.00;;;;;;4912813;29;20525;-69
2021/10/22 03:39:20;;;;;;;1.85;1.20;;;8.30;93.30;;;;;;4911004;29;20024;-69
2021/10/22 03:41:46;;;;;;;2.95;1.27;;;8.30;93.60;;;;;;4911796;29;20059;-69
2021/10/22 03:44:12;;;;;;;1.00;1.00;;;8.20;93.50;;;;;;4910141;29;20032;-69
2021/10/22 03:46:38;;;;;;;1.95;1.10;;;8.30;93.30;;;;;;4911992;29;20047;-69
2021/10/22 03:49:04;;;;;;;1.73;1.48;;;8.30;93.30;;;;;;4914401;29;20024;-69
2021/10/22 03:51:30;;;;;;;1.83;1.20;;;8.30;93.10;;;;;;4910742;29;20040;-69
2021/10/22 03:53:55;;;;;;;0.85;0.85;;;8.30;93.20;;;;;;4908243;29;20048;-69
2021/10/22 03:56:21;;;;;;;1.15;0.93;;;8.30;92.60;;;;;;4911554;29;20039;-69
2021/10/22 03:58:47;;;;;;;1.02;1.02;;;8.30;92.70;;;;;;4910923;29;20039;-69
2021/10/22 04:01:14;;;;;;;1.20;1.10;;;8.30;92.70;;;;;;4906704;29;20043;-69
2021/10/22 04:03:39;;;;;;;2.10;1.20;;;8.20;93.30;;;;;;4912456;29;20020;-69
2021/10/22 04:06:05;;;;;;;4.45;1.50;;;8.20;93.20;;;;;;4914659;29;20445;-69
2021/10/22 04:08:31;;;;;;;1.30;1.20;;;8.20;93.50;;;;;;4925599;29;20036;-69
2021/10/22 04:10:57;;;;;;;1.83;1.30;;;8.20;93.70;;;;;;4911089;29;20027;-69
2021/10/22 04:13:24;;;;;;;1.73;1.17;;;8.20;94.10;;;;;;4911421;29;20406;-69
2021/10/22 04:15:49;;;;;;;1.50;1.40;;;8.10;94.30;;;;;;4910610;29;20505;-69
2021/10/22 04:18:15;;;;;;;3.08;1.40;;;8.00;94.60;;;;;;4913488;29;20164;-69
2021/10/22 04:20:41;;;;;;;2.92;1.40;;;7.80;95.10;;;;;;4912257;29;20083;-69
2021/10/22 04:23:11;;;;;;;3.15;1.70;;;7.70;95.60;;;;;;4931159;28;20103;-69
2021/10/22 04:25:38;;;;;;;2.65;1.30;;;7.80;95.50;;;;;;4913354;29;20040;-69
2021/10/22 04:28:06;;;;;;;2.78;1.30;;;7.90;95.10;;;;;;4911512;29;20123;-69
2021/10/22 04:30:32;;;;;;;1.98;1.40;;;7.80;94.90;;;;;;4925834;29;20096;-69
2021/10/22 04:32:58;;;;;;;2.33;1.30;;;7.80;94.90;;;;;;4911393;29;20047;-69
2021/10/22 04:35:24;;;;;;;1.63;1.30;;;7.90;95.10;;;;;;4913819;29;20167;-69
2021/10/22 04:40:31;;;;;;;1.67;1.30;;;8.00;95.70;;;;;;4913547;29;20024;-69
2021/10/22 04:43:02;;;;;;;2.58;1.40;;;8.00;95.50;;;;;;4914191;29;20016;-69
2021/10/22 04:45:30;;;;;;;1.50;1.10;;;8.00;95.30;;;;;;4910775;29;20484;-69
2021/10/22 04:47:55;;;;;;;1.67;1.57;;;8.10;95.20;;;;;;4914021;29;20039;-69
2021/10/22 04:50:21;;;;;;;1.75;1.60;;;8.10;95.00;;;;;;4910572;29;20052;-69
2021/10/22 04:52:53;;;;;;;1.65;1.48;;;8.00;95.00;;;;;;4910763;29;20043;-69
2021/10/22 04:55:23;;;;;;;3.40;1.60;;;8.00;95.10;;;;;;4910743;29;20179;-69
2021/10/22 04:57:53;;;;;;;1.45;1.35;;;8.00;94.90;;;;;;4926423;29;20025;-69
2021/10/22 05:00:20;;;;;;;2.90;1.45;;;8.00;95.30;;;;;;4913459;29;20032;-69
2021/10/22 05:02:47;;;;;;;1.90;1.40;;;8.00;95.60;;;;;;4910855;29;20653;-69
2021/10/22 05:05:13;;;;;;;3.05;1.80;;;8.00;95.80;;;;;;4910158;29;20040;-69
2021/10/22 05:07:39;;;;;;;1.90;1.38;;;8.00;95.70;;;;;;4911293;29;20121;-69
2021/10/22 05:10:06;;;;;;;2.80;1.52;;;8.00;95.40;;;;;;4911993;29;20509;-69
2021/10/22 05:12:32;;;;;;;2.78;1.50;;;8.00;95.40;;;;;;4920143;29;20036;-69
2021/10/22 05:14:58;;;;;;;3.17;1.50;;;8.00;95.70;;;;;;4913404;29;20036;-69
2021/10/22 05:17:25;;;;;;;1.60;1.48;;;8.00;95.70;;;;;;4909098;29;20152;-69
2021/10/22 05:19:52;;;;;;;2.33;1.50;;;8.10;95.50;;;;;;4904411;29;20024;-69
2021/10/22 05:22:18;;;;;;;2.80;2.42;;;8.00;95.40;;;;;;4905733;29;20366;-69
2021/10/22 05:24:43;;;;;;;4.93;3.15;;;8.10;95.40;;;;;;4912513;29;20568;-69
2021/10/22 05:27:09;;;;;;;3.13;2.20;;;8.10;95.30;;;;;;4910170;29;20130;-70
2021/10/22 05:29:35;;;;;;;1.70;1.52;;;8.10;95.30;;;;;;4913779;29;20024;-69
2021/10/22 05:32:01;;;;;;;2.15;1.45;;;8.00;95.10;;;;;;4907648;29;20565;-69
2021/10/22 05:34:26;;;;;;;3.03;1.40;;;8.00;95.30;;;;;;4912894;29;20536;-69
2021/10/22 05:36:53;;;;;;;3.08;1.45;;;8.00;95.30;;;;;;4926286;29;20028;-71
2021/10/22 05:39:19;;;;;;;3.22;1.80;;;7.90;95.50;;;;;;4911468;29;20039;-69
2021/10/22 05:41:50;;;;;;;2.97;1.80;;;8.00;95.30;;;;;;4908158;29;20043;-69
2021/10/22 05:44:19;;;;;;;1.40;1.30;;;8.00;95.60;;;;;;4906757;29;20137;-69
2021/10/22 05:46:51;;;;;;;2.08;1.50;;;8.00;95.40;;;;;;4914105;29;20083;-69
2021/10/22 05:49:17;;;;;;;2.58;1.80;;;8.00;95.30;;;;;;4910814;29;20027;-69
2021/10/22 05:51:42;;;;;;;2.08;1.50;;;8.00;95.20;;;;;;4925987;29;20024;-69
2021/10/22 05:54:08;;;;;;;2.22;1.55;;;7.90;95.20;;;;;;4907915;29;20028;-69
2021/10/22 05:56:34;;;;;;;3.08;1.80;;;7.90;95.00;;;;;;4909220;29;20056;-69
2021/10/22 05:58:59;;;;;;;2.80;1.80;;;7.90;95.50;;;;;;4912153;29;20039;-70
2021/10/22 06:01:25;;;;;;;1.63;1.50;;;7.90;95.40;;;;;;4910981;29;20064;-69
2021/10/22 06:03:51;;;;;;;5.47;1.75;;;7.80;95.90;;;;;;4915893;29;20046;-69
2021/10/22 06:06:17;;;;;;;3.65;1.88;;;7.80;96.00;;;;;;4915501;29;20091;-69
2021/10/22 06:08:43;;;;;;;2.25;1.60;;;7.70;96.20;;;;;;4914520;29;20028;-69
2021/10/22 06:11:12;;;;;;;2.97;1.73;;;7.70;96.50;;;;;;4915172;29;20047;-69
2021/10/22 06:13:42;;;;;;;3.60;1.73;;;7.70;96.00;;;;;;4914888;29;20119;-69
2021/10/22 06:16:09;;;;;;;2.75;1.52;;;7.80;96.30;;;;;;4916465;29;20040;-70
2021/10/22 06:18:44;;;;;;;4.40;2.28;;;7.90;95.90;;;;;;4914946;29;20410;-69
2021/10/22 06:21:11;;;;;;;2.40;2.20;;;7.90;95.80;;;;;;4918060;29;20031;-69
2021/10/22 06:23:55;;;;;;;2.53;1.80;;;8.00;95.80;;;;;;4909437;29;20021;-70
2021/10/22 06:26:27;;;;;;;3.17;1.48;;;7.90;95.30;;;;;;4913506;29;20032;-69
2021/10/22 06:28:54;;;;;;;2.22;1.75;;;8.00;95.20;;;;;;4913791;29;20043;-69
2021/10/22 06:31:20;;;;;;;2.25;1.50;;;7.90;94.80;;;;;;4918254;29;20044;-69
2021/10/22 06:33:46;;;;;;;2.60;1.50;;;7.90;95.00;;;;;;4915193;29;20035;-69
2021/10/22 06:36:12;;;;;;;3.33;1.92;;;7.90;95.00;;;;;;4914340;29;20032;-69
2021/10/22 06:38:38;;;;;;;4.20;1.80;;;7.90;94.90;;;;;;4915279;29;20109;-69
2021/10/22 06:41:07;;;;;;;2.28;1.50;;;7.90;94.80;;;;;;4916068;29;20102;-69
2021/10/22 06:43:33;;;;;;;4.50;1.70;;;7.90;94.80;;;;;;4914705;29;20031;-69
2021/10/22 06:45:58;;;;;;;1.85;1.60;;;7.90;94.90;;;;;;4913081;29;20494;-70
2021/10/22 06:48:24;;;;;;;3.67;1.58;;;7.90;95.50;;;;;;4906327;29;20643;-70
2021/10/22 06:50:50;;;;;;;5.03;2.10;;;7.90;95.80;;;;;;4912282;29;20107;-69
2021/10/22 06:53:16;;;;;;;2.83;1.65;;;7.80;96.00;;;;;;4914092;29;20036;-69
2021/10/22 06:55:41;;;;;;;4.95;2.25;;;7.90;96.30;;;;;;4909999;29;20087;-69
2021/10/22 06:58:07;;;;;;;3.67;2.40;;;7.90;96.40;;;;;;4915642;29;20024;-69
2021/10/22 07:00:34;;;;;;;4.05;2.45;;;7.80;96.40;;;;;;4914088;29;20070;-69
2021/10/22 07:03:00;;;;;;;4.30;2.00;;;7.80;96.60;;;;;;4912862;29;20032;-69
2021/10/22 07:07:55;;;;;;;3.40;2.63;;;7.80;96.90;;;;;;4915812;29;20032;-70
2021/10/22 07:10:21;;;;;;;5.35;2.72;;;7.80;97.10;;;;;;4914334;29;20084;-69
2021/10/22 07:12:47;;;;;;;4.22;2.40;;;7.80;96.70;;;;;;4913636;29;20044;-69
2021/10/22 07:15:14;;;;;;;4.65;2.38;;;7.80;96.60;;;;;;4914396;29;20028;-69
2021/10/22 07:17:40;;;;;;;4.88;2.20;;;7.90;96.70;;;;;;4914071;29;20111;-69
2021/10/22 07:20:06;;;;;;;5.53;2.30;;;7.90;96.80;;;;;;4914041;29;20079;-69
2021/10/22 07:22:34;;;;;;;5.25;2.40;;;7.90;96.80;;;;;;4919000;29;20036;-69
2021/10/22 07:25:00;;;;;;;4.43;2.22;;;8.00;97.10;;;;;;4914303;29;20110;-70
2021/10/22 07:27:26;;;;;;;2.83;2.33;;;8.00;97.20;;;;;;4912888;29;20457;-70
2021/10/22 07:29:52;;;;;;;4.90;2.60;;;7.90;97.10;;;;;;4911185;29;20032;-69
2021/10/22 07:32:18;;;;;;;3.50;2.83;;;7.90;97.40;;;;;;4903934;29;20348;-69
2021/10/22 07:34:44;;;;;;;3.13;2.35;;;7.90;97.00;;;;;;4928489;29;20109;-69
2021/10/22 07:37:09;;;;;;;3.63;2.55;;;7.90;97.20;;;;;;4914929;29;20034;-70
2021/10/22 07:39:35;;;;;;;4.07;2.53;;;7.90;97.40;;;;;;4915009;29;20020;-69
2021/10/22 07:42:01;;;;;;;3.22;2.60;;;8.00;97.80;;;;;;4914686;29;20512;-69
2021/10/22 07:44:29;;;;;;;6.28;3.53;;;8.00;97.20;;;;;;4913341;29;20513;-69
2021/10/22 07:46:56;;;;;;;5.60;2.83;;;8.00;96.70;;;;;;4903515;29;20029;-70
2021/10/22 07:49:22;;;;;;;3.30;2.80;;;8.00;96.90;;;;;;4908956;29;20108;-69
2021/10/22 07:51:48;;;;;;;4.75;2.42;;;8.00;97.30;;;;;;4913380;29;20509;-69
2021/10/22 07:54:13;;;;;;;4.15;2.88;;;8.00;97.30;;;;;;4909240;29;20037;-69
2021/10/22 07:56:43;;;;;;;6.82;3.50;;;8.10;97.10;;;;;;4928637;29;20047;-69
2021/10/22 07:59:11;;;;;;;7.68;3.35;;;8.10;97.30;;;;;;4914150;29;20032;-69
2021/10/22 08:01:37;;;;;;;8.68;3.47;;;8.10;97.20;;;;;;4906434;29;20401;-69
2021/10/22 08:04:03;;;;;;;7.07;3.10;;;8.10;97.30;;;;;;4912319;29;20036;-68
2021/10/22 08:06:30;;;;;;;6.53;3.90;;;8.10;97.00;;;;;;4913651;29;20071;-69
2021/10/22 08:08:56;;;;;;;4.40;2.88;;;8.00;97.00;;;;;;4913539;29;20107;-69
2021/10/22 08:11:23;;;;;;;6.85;3.72;;;8.10;97.00;;;;;;4912172;29;20020;-69
2021/10/22 08:13:49;;;;;;;8.40;3.30;;;8.10;97.30;;;;;;4914369;29;20048;-69
2021/10/22 08:16:15;;;;;;;7.38;3.03;;;8.10;96.80;;;;;;4908373;29;20115;-69
2021/10/22 08:18:42;;;;;;;5.50;3.55;;;8.10;96.70;;;;;;4911564;29;20079;-69
2021/10/22 08:21:20;;;;;;;4.50;2.63;;;8.10;97.50;;;;;;4919038;29;20102;-70
2021/10/22 08:23:47;;;;;;;4.13;3.00;;;8.30;96.80;;;;;;4913327;29;20020;-69
2021/10/22 08:26:19;;;;;;;4.30;2.63;;;8.20;95.60;;;;;;4910612;29;20035;-69
2021/10/22 08:28:45;;;;;;;4.97;3.03;;;8.10;94.40;;;;;;4908864;29;20028;-69
2021/10/22 08:31:12;;;;;;;3.00;2.65;;;8.10;94.40;;;;;;4913327;29;20409;-69
2021/10/22 08:33:38;;;;;;;6.47;2.92;;;8.20;94.80;;;;;;4913379;29;20390;-69
2021/10/22 08:36:07;;;;;;;3.35;2.67;;;8.10;93.70;;;;;;4912321;29;20036;-69
2021/10/22 08:38:33;;;;;;;3.78;2.47;;;8.10;94.60;;;;;;4921491;29;20438;-69
2021/10/22 08:40:58;;;;;;;2.92;2.63;;;8.10;94.70;;;;;;4905932;29;20087;-69
2021/10/22 08:43:25;;;;;;;4.55;2.97;;;8.10;94.10;;;;;;4907152;29;20076;-70
2021/10/22 08:45:56;;;;;;;7.10;3.58;;;8.10;95.40;;;;;;4912624;29;20115;-69
2021/10/22 08:48:23;;;;;;;8.32;3.33;;;8.10;95.40;;;;;;4913706;29;20032;-69
2021/10/22 08:50:49;;;;;;;5.05;3.05;;;8.10;94.30;;;;;;4913313;29;20034;-69
2021/10/22 08:53:16;;;;;;;4.47;2.60;;;8.20;94.20;;;;;;4912010;29;20058;-69
2021/10/22 08:55:42;;;;;;;5.70;3.22;;;8.20;93.90;;;;;;4907307;29;20037;-69
2021/10/22 08:58:08;;;;;;;8.07;2.97;;;8.30;94.60;;;;;;4913626;29;20060;-69
2021/10/22 09:00:33;;;;;;;6.72;2.92;;;8.30;94.30;;;;;;4913251;29;20052;-69
2021/10/22 09:03:13;;;;;;;6.15;3.05;;;8.30;94.40;;;;;;4912432;29;20533;-69
2021/10/22 09:06:16;;;;;;;3.95;2.70;;;8.30;95.60;;;;;;4911539;29;20036;-69
2021/10/22 09:08:44;;;;;;;12.85;2.90;;;8.30;93.60;;;;;;4855007;29;20511;-69
2021/10/22 09:11:32;;;;;;;6.60;2.80;;;8.30;93.80;;;;;;4904847;29;20487;-69
2021/10/22 09:14:14;;;;;;;4.77;2.43;;;8.20;91.70;;;;;;4904902;29;20052;-69
2021/10/22 09:16:47;;;;;;;5.78;2.78;;;8.20;92.50;;;;;;4913739;29;20502;-69
2021/10/22 09:19:26;;;;;;;6.38;2.60;;;8.20;92.30;;;;;;4913332;29;20024;-69
2021/10/22 09:21:51;;;;;;;3.78;2.45;;;8.20;92.20;;;;;;4912166;29;20340;-69
2021/10/22 09:24:19;;;;;;;4.75;2.80;;;8.20;91.90;;;;;;4913774;29;20135;-69
2021/10/22 09:26:56;;;;;;;9.32;2.95;;;8.30;91.50;;;;;;4913094;29;20390;-69
2021/10/22 09:29:29;;;;;;;2.70;2.33;;;8.20;92.30;;;;;;4912215;29;20059;-69
2021/10/22 09:31:57;;;;;;;5.38;2.65;;;8.20;91.60;;;;;;4926666;29;20034;-70
2021/10/22 09:34:33;;;;;;;5.88;2.80;;;8.20;91.00;;;;;;4910765;29;20568;-69
2021/10/22 09:37:00;;;;;;;6.57;2.55;;;8.30;92.40;;;;;;4911493;29;20115;-69
2021/10/22 09:39:33;;;;;;;2.45;2.25;;;8.40;92.80;;;;;;4916595;29;20021;-70
2021/10/22 09:42:00;;;;;;;5.88;2.22;;;8.40;92.00;;;;;;4916895;29;20051;-70
2021/10/22 09:44:31;;;;;;;7.30;2.80;;;8.50;91.20;;;;;;4915335;29;20051;-68
2021/10/22 09:47:06;;;;;;;6.75;2.92;;;8.50;92.50;;;;;;4914894;29;20086;-68
2021/10/22 09:49:34;;;;;;;8.20;2.55;;;8.40;89.50;;;;;;4912951;29;20032;-69
2021/10/22 09:52:01;;;;;;;3.60;2.03;;;8.40;91.50;;;;;;4915863;29;20430;-68
2021/10/22 09:54:31;;;;;;;8.45;2.20;;;8.40;90.70;;;;;;4909808;29;20029;-68
2021/10/22 09:57:04;;;;;;;5.95;2.25;;;8.40;90.60;;;;;;4914467;29;20036;-68
2021/10/22 09:59:30;;;;;;;7.07;2.15;;;8.40;90.60;;;;;;4916696;29;20012;-69
2021/10/22 10:01:58;;;;;;;7.22;2.10;;;8.40;87.60;;;;;;4914677;29;20048;-69
2021/10/22 10:04:25;;;;;;;5.60;1.95;;;8.40;90.30;;;;;;4914606;29;20032;-69
2021/10/22 10:06:52;;;;;;;6.18;1.83;;;8.30;88.20;;;;;;4919782;29;20020;-68
2021/10/22 10:09:19;;;;;;;6.43;2.13;;;8.30;83.60;;;;;;4915064;29;20032;-69
2021/10/22 10:11:45;;;;;;;9.23;2.33;;;8.30;86.10;;;;;;4912200;29;20032;-69
2021/10/22 10:14:14;;;;;;;8.60;2.28;;;8.20;83.30;;;;;;4914900;29;20127;-68
2021/10/22 10:16:40;;;;;;;6.25;1.63;;;8.30;84.80;;;;;;4914732;29;20092;-69
2021/10/22 10:19:34;;;;;;;10.90;2.05;;;8.30;86.00;;;;;;4914110;29;20120;-69
2021/10/22 10:22:13;;;;;;;8.32;1.80;;;8.50;88.40;;;;;;4914537;29;20039;-68
2021/10/22 10:24:48;;;;;;;7.72;1.52;;;8.50;78.40;;;;;;4916284;29;20183;-68
2021/10/22 10:27:14;;;;;;;5.50;2.22;;;8.40;77.10;;;;;;4911187;29;20047;-68
2021/10/22 10:29:48;;;;;;;4.25;1.70;;;8.40;78.20;;;;;;4915601;29;20183;-69
2021/10/22 10:32:19;;;;;;;2.83;1.30;;;8.40;79.80;;;;;;4912250;29;20086;-69
2021/10/22 10:34:52;;;;;;;5.97;2.13;;;8.30;77.20;;;;;;4918277;29;20036;-69
2021/10/22 10:37:33;;;;;;;10.02;2.28;;;8.20;78.10;;;;;;4910322;29;20126;-70
2021/10/22 10:40:08;;;;;;;10.15;2.13;;;8.20;80.10;;;;;;4909836;29;20410;-69
2021/10/22 10:42:39;;;;;;;4.40;1.60;;;8.20;78.50;;;;;;4914910;29;20111;-69
2021/10/22 10:45:26;;;;;;;4.10;1.23;;;8.30;78.60;;;;;;4912949;29;20043;-68
2021/10/22 10:47:56;;;;;;;6.28;1.40;;;8.30;76.40;;;;;;4914913;29;20068;-69
2021/10/22 10:50:37;;;;;;;10.93;2.00;;;8.40;75.90;;;;;;4914771;29;20032;-69
2021/10/22 10:53:03;;;;;;;7.15;2.03;;;8.50;79.90;;;;;;4911920;29;20512;-69
2021/10/22 10:55:42;;;;;;;4.30;1.38;;;8.60;75.80;;;;;;4914160;29;20039;-69
2021/10/22 10:58:07;;;;;;;5.20;1.33;;;8.50;73.50;;;;;;4911798;29;20024;-68
2021/10/22 11:00:37;;;;;;;5.15;1.65;;;8.50;72.70;;;;;;4913962;29;20808;-68
2021/10/22 11:03:03;;;;;;;6.20;1.88;;;8.60;76.10;;;;;;4914304;29;20115;-68
2021/10/22 11:05:44;;;;;;;9.48;1.70;;;8.70;76.30;;;;;;4936529;28;20039;-68
2021/10/22 11:08:25;;;;;;;6.97;3.90;;;8.70;75.20;;;;;;4913016;29;20035;-68
2021/10/22 11:10:59;;;;;;;9.85;2.35;;;8.80;76.80;;;;;;4914953;29;20055;-70
2021/10/22 11:13:25;;;;;;;7.35;1.48;;;8.90;75.90;;;;;;4916224;29;20067;-69
2021/10/22 11:15:54;;;;;;;3.20;1.27;;;9.00;78.00;;;;;;4915393;29;20401;-69
2021/10/22 11:18:21;;;;;;;6.18;1.55;;;9.10;78.80;;;;;;4914549;29;20028;-69
2021/10/22 11:20:50;;;;;;;4.22;1.42;;;9.10;75.10;;;;;;4917513;29;20160;-69
2021/10/22 11:23:16;;;;;;;6.95;1.50;;;9.10;73.60;;;;;;4916622;29;20441;-69
2021/10/22 11:25:41;;;;;;;8.90;1.80;;;9.10;74.40;;;;;;4915225;29;20036;-69
2021/10/22 11:28:12;;;;;;;3.75;1.25;;;9.10;77.30;;;;;;4928798;29;20032;-70
2021/10/22 11:30:51;;;;;;;4.47;1.88;;;9.10;74.50;;;;;;4914719;29;20036;-69
2021/10/22 11:33:17;;;;;;;3.80;1.20;;;9.10;75.20;;;;;;4902753;29;20068;-69
2021/10/22 11:35:43;;;;;;;7.03;1.52;;;9.10;73.50;;;;;;4914821;29;20036;-69
2021/10/22 11:38:08;;;;;;;6.20;1.63;;;9.10;73.80;;;;;;4929808;29;20035;-70
2021/10/22 11:40:34;;;;;;;6.45;1.40;;;9.00;73.30;;;;;;4913913;29;20024;-69
2021/10/22 11:43:07;;;;;;;5.05;1.60;;;9.10;76.10;;;;;;4911869;29;20107;-70
2021/10/22 11:45:32;;;;;;;1.80;1.10;;;9.10;75.20;;;;;;4904816;29;20044;-70
2021/10/22 11:47:58;;;;;;;5.68;1.70;;;9.20;75.80;;;;;;4914468;29;20028;-69
2021/10/22 11:50:28;;;;;;;4.85;1.40;;;9.30;75.60;;;;;;4910609;29;20040;-69
2021/10/22 11:53:26;;;;;;;3.15;1.20;;;9.30;74.50;;;;;;4912428;29;20107;-69
2021/10/22 11:56:02;;;;;;;2.30;1.40;;;9.40;72.20;;;;;;4898990;29;20059;-69
2021/10/22 11:58:35;;;;;;;6.78;1.23;;;9.50;72.40;;;;;;4913862;29;20111;-69
2021/10/22 12:01:02;;;;;;;5.90;1.20;;;9.60;68.90;;;;;;4911545;29;20160;-69
2021/10/22 12:03:38;;;;;;;3.60;0.90;;;9.60;69.10;;;;;;4914149;29;20091;-70
2021/10/22 12:06:23;;;;;;;6.88;1.20;;;9.60;70.10;;;;;;4912716;29;20072;-69
2021/10/22 12:08:57;;;;;;;3.92;1.35;;;9.60;68.50;;;;;;4912767;29;20031;-69
2021/10/22 12:11:27;;;;;;;2.50;0.85;;;9.60;68.10;;;;;;4911621;29;20032;-69
2021/10/22 12:13:53;;;;;;;3.83;1.08;;;9.60;66.30;;;;;;4912789;29;20214;-70
2021/10/22 12:16:25;;;;;;;2.03;1.20;;;9.70;66.90;;;;;;4913469;29;20123;-69
2021/10/22 12:18:57;;;;;;;5.57;1.02;;;9.80;68.10;;;;;;4921779;29;20025;-69
2021/10/22 12:21:23;;;;;;;4.82;1.45;;;9.80;68.40;;;;;;4913236;29;20031;-69
2021/10/22 12:24:01;;;;;;;4.07;0.93;;;9.80;69.60;;;;;;4911377;29;20036;-70
2021/10/22 12:26:30;;;;;;;9.50;2.00;;;9.70;69.10;;;;;;4912901;29;20038;-69
2021/10/22 12:29:03;;;;;;;3.00;1.13;;;9.80;70.50;;;;;;4913880;29;20294;-69
2021/10/22 12:31:37;;;;;;;6.40;1.90;;;9.80;69.00;;;;;;4912110;29;20071;-69
2021/10/22 12:34:07;;;;;;;4.88;1.67;;;9.80;69.00;;;;;;4914347;29;20630;-69
2021/10/22 12:36:33;;;;;;;10.70;1.45;;;9.80;69.10;;;;;;4911236;29;20126;-69
2021/10/22 12:39:00;;;;;;;4.43;1.20;;;9.80;68.90;;;;;;4914367;29;20020;-69
2021/10/22 12:41:29;;;;;;;3.28;1.20;;;9.90;70.70;;;;;;4911888;29;20026;-70
2021/10/22 12:44:12;;;;;;;2.40;0.95;;;10.00;71.10;;;;;;4912588;29;20036;-70
2021/10/22 12:46:54;;;;;;;9.63;1.50;;;10.00;67.10;;;;;;4904549;29;20466;-69
2021/10/22 12:49:25;;;;;;;4.82;1.13;;;10.00;67.20;;;;;;4913231;29;20039;-70
2021/10/22 12:52:09;;;;;;;2.40;1.00;;;10.00;66.40;;;;;;4912702;29;20040;-69
2021/10/22 12:54:48;;;;;;;1.90;0.95;;;10.00;64.10;;;;;;4910167;29;20036;-69
2021/10/22 12:57:22;;;;;;;4.43;1.38;;;10.10;66.80;;;;;;4911839;29;20509;-69
2021/10/22 12:59:48;;;;;;;3.83;0.77;;;10.00;62.50;;;;;;4898990;29;20024;-69
2021/10/22 13:02:28;;;;;;;2.30;0.73;;;10.00;60.80;;;;;;4911277;29;20063;-69
2021/10/22 13:05:13;;;;;;;5.00;0.90;;;10.10;60.50;;;;;;4902421;29;20246;-69
2021/10/22 13:07:54;;;;;;;1.52;0.93;;;10.00;58.70;;;;;;4912992;29;20090;-69